createdAt,value
2023-05-07T00:01:43.968Z,5.07
2023-05-07T00:04:12.290Z,2.05
2023-05-07T00:06:40.872Z,2.05
2023-05-07T00:09:09.280Z,2.77
2023-05-07T00:11:37.499Z,5.23
2023-05-07T00:14:05.788Z,2.77
2023-05-07T00:16:33.945Z,3.20
2023-05-07T00:19:03.564Z,2.43
2023-05-07T00:21:31.677Z,2.40
2023-05-07T00:23:59.810Z,2.40
2023-05-07T00:26:27.937Z,4.43
2023-05-07T00:28:56.054Z,4.77
2023-05-07T00:31:24.250Z,2.63
2023-05-07T00:33:52.384Z,3.00
2023-05-07T00:36:21.965Z,2.90
2023-05-07T00:38:50.144Z,2.43
2023-05-07T00:41:18.277Z,3.20
2023-05-07T00:43:46.936Z,2.50
2023-05-07T00:46:16.987Z,2.30
2023-05-07T00:48:45.408Z,2.77
2023-05-07T00:51:13.873Z,1.80
2023-05-07T00:53:43.676Z,3.17
2023-05-07T00:56:12.427Z,3.03
2023-05-07T00:58:40.956Z,3.33
2023-05-07T01:01:09.271Z,2.43
2023-05-07T01:03:37.522Z,2.10
2023-05-07T01:06:09.000Z,4.13
2023-05-07T01:08:40.840Z,4.07
2023-05-07T01:11:11.215Z,4.20
2023-05-07T01:13:40.723Z,2.73
2023-05-07T01:16:10.884Z,2.40
2023-05-07T01:18:39.182Z,2.83
2023-05-07T01:21:07.874Z,1.80
2023-05-07T01:23:38.251Z,1.43
2023-05-07T01:26:06.502Z,1.50
2023-05-07T01:28:34.623Z,1.57
2023-05-07T01:31:05.485Z,2.53
2023-05-07T01:33:36.831Z,1.37
2023-05-07T01:36:07.790Z,1.93
2023-05-07T01:38:38.613Z,3.13
2023-05-07T01:41:07.199Z,1.33
2023-05-07T01:43:35.849Z,2.67
2023-05-07T01:46:06.095Z,1.50
2023-05-07T01:48:35.172Z,1.63
2023-05-07T01:51:04.069Z,1.60
2023-05-07T01:53:39.777Z,1.30
2023-05-07T01:56:08.697Z,1.77
2023-05-07T01:58:36.881Z,1.47
2023-05-07T02:01:05.086Z,0.90
2023-05-07T02:03:33.328Z,1.20
2023-05-07T02:06:01.514Z,2.00
2023-05-07T02:08:29.705Z,0.80
2023-05-07T02:10:59.246Z,1.33
2023-05-07T02:13:29.386Z,2.30
2023-05-07T02:15:57.521Z,1.47
2023-05-07T02:18:25.714Z,1.47
2023-05-07T02:20:53.880Z,1.07
2023-05-07T02:23:22.038Z,1.23
2023-05-07T02:25:50.219Z,1.47
2023-05-07T02:28:19.794Z,2.30
2023-05-07T02:30:47.945Z,2.33
2023-05-07T02:33:16.120Z,2.47
2023-05-07T02:35:44.261Z,1.47
2023-05-07T02:38:12.496Z,1.17
2023-05-07T02:40:41.226Z,1.33
2023-05-07T02:43:09.582Z,1.30
2023-05-07T02:45:39.681Z,2.30
2023-05-07T02:48:08.315Z,1.03
2023-05-07T02:50:36.588Z,1.20
2023-05-07T02:53:04.746Z,1.03
2023-05-07T02:55:32.934Z,0.83
2023-05-07T02:58:01.093Z,1.50
2023-05-07T03:00:29.281Z,1.27
2023-05-07T03:02:58.867Z,2.03
2023-05-07T03:05:27.087Z,1.80
2023-05-07T03:07:55.231Z,1.27
2023-05-07T03:10:23.370Z,1.17
2023-05-07T03:12:51.551Z,1.30
2023-05-07T03:15:20.075Z,1.90
2023-05-07T03:17:48.242Z,1.13
2023-05-07T03:20:18.201Z,1.70
2023-05-07T03:22:46.373Z,1.27
2023-05-07T03:25:15.235Z,1.43
2023-05-07T03:27:44.058Z,1.17
2023-05-07T03:30:13.804Z,1.73
2023-05-07T03:32:42.120Z,2.30
2023-05-07T03:35:10.978Z,1.10
2023-05-07T03:37:40.931Z,1.10
2023-05-07T03:40:11.771Z,2.00
2023-05-07T03:42:40.349Z,1.70
2023-05-07T03:45:09.970Z,1.73
2023-05-07T03:47:38.170Z,1.33
2023-05-07T03:50:07.145Z,2.30
2023-05-07T03:52:35.340Z,1.13
2023-05-07T03:55:05.126Z,1.43
2023-05-07T03:57:33.255Z,1.77
2023-05-07T04:00:01.431Z,1.63
2023-05-07T04:02:29.626Z,1.30
2023-05-07T04:04:58.220Z,1.23
2023-05-07T04:07:26.403Z,1.67
2023-05-07T04:09:54.513Z,2.47
2023-05-07T04:12:24.068Z,1.10
2023-05-07T04:14:52.207Z,1.57
2023-05-07T04:17:20.320Z,0.90
2023-05-07T04:19:48.421Z,1.00
2023-05-07T04:22:16.872Z,1.07
2023-05-07T04:24:45.020Z,1.17
2023-05-07T04:27:13.150Z,1.27
2023-05-07T04:29:43.476Z,1.33
2023-05-07T04:32:12.240Z,1.27
2023-05-07T04:34:40.494Z,1.43
2023-05-07T04:37:08.567Z,1.63
2023-05-07T04:39:37.413Z,1.40
2023-05-07T04:42:05.572Z,1.43
2023-05-07T04:44:33.866Z,2.23
2023-05-07T04:47:03.384Z,1.13
2023-05-07T04:49:31.496Z,2.33
2023-05-07T04:51:59.637Z,2.07
2023-05-07T04:54:27.813Z,1.60
2023-05-07T04:56:55.903Z,1.53
2023-05-07T04:59:24.134Z,2.73
2023-05-07T05:01:52.474Z,4.93
2023-05-07T05:04:22.158Z,3.77
2023-05-07T05:06:50.270Z,5.00
2023-05-07T05:09:18.625Z,3.43
2023-05-07T05:11:47.332Z,5.57
2023-05-07T05:14:15.528Z,3.07
2023-05-07T05:16:43.770Z,2.60
2023-05-07T05:19:12.049Z,3.07
2023-05-07T05:21:41.633Z,3.87
2023-05-07T05:24:10.041Z,2.90
2023-05-07T05:26:38.183Z,2.87
2023-05-07T05:29:06.897Z,2.63
2023-05-07T05:31:35.109Z,3.08
2023-05-07T05:34:04.892Z,2.50
2023-05-07T05:36:33.080Z,2.57
2023-05-07T05:39:02.637Z,2.43
2023-05-07T05:41:30.832Z,1.83
2023-05-07T05:43:58.955Z,2.65
2023-05-07T05:46:27.198Z,3.00
2023-05-07T05:48:55.420Z,2.30
2023-05-07T05:51:24.341Z,3.03
2023-05-07T05:53:52.514Z,3.93
2023-05-07T05:56:22.310Z,2.58
2023-05-07T05:58:50.723Z,3.72
2023-05-07T06:01:19.935Z,4.00
2023-05-07T06:03:48.181Z,2.67
2023-05-07T06:06:16.809Z,2.58
2023-05-07T06:08:44.940Z,2.60
2023-05-07T06:11:13.142Z,3.42
2023-05-07T06:13:42.949Z,2.55
2023-05-07T06:16:11.093Z,2.22
2023-05-07T06:18:39.275Z,2.20
2023-05-07T06:21:07.491Z,2.13
2023-05-07T06:23:36.209Z,2.75
2023-05-07T06:26:04.486Z,2.95
2023-05-07T06:28:36.913Z,2.40
2023-05-07T06:31:18.172Z,1.67
2023-05-07T06:33:47.152Z,2.15
2023-05-07T06:36:15.509Z,1.27
2023-05-07T06:38:43.899Z,1.48
2023-05-07T06:41:12.097Z,1.13
2023-05-07T06:43:40.567Z,1.40
2023-05-07T06:46:08.867Z,2.35
2023-05-07T06:48:38.469Z,0.90
2023-05-07T06:51:07.095Z,1.13
2023-05-07T06:53:35.944Z,0.70
2023-05-07T06:56:04.098Z,1.70
2023-05-07T06:58:32.636Z,0.80
2023-05-07T07:01:00.959Z,1.02
2023-05-07T07:03:29.389Z,0.70
2023-05-07T07:06:00.360Z,1.35
2023-05-07T07:08:28.638Z,0.80
2023-05-07T07:10:56.937Z,1.00
2023-05-07T07:13:25.144Z,0.80
2023-05-07T07:15:54.123Z,1.17
2023-05-07T07:18:22.637Z,1.90
2023-05-07T07:20:51.276Z,0.70
2023-05-07T07:23:20.960Z,0.90
2023-05-07T07:25:49.524Z,0.70
2023-05-07T07:28:20.298Z,1.00
2023-05-07T07:30:48.985Z,1.65
2023-05-07T07:33:17.482Z,1.20
2023-05-07T07:35:45.880Z,0.93
2023-05-07T07:38:14.082Z,1.10
2023-05-07T07:40:45.074Z,1.20
2023-05-07T07:43:13.273Z,1.33
2023-05-07T07:45:41.912Z,1.08
2023-05-07T07:48:10.254Z,1.63
2023-05-07T07:50:45.190Z,2.58
2023-05-07T07:53:14.265Z,1.20
2023-05-07T07:55:43.937Z,1.27
2023-05-07T07:58:12.331Z,1.00
2023-05-07T08:00:40.486Z,1.35
2023-05-07T08:03:11.348Z,1.08
2023-05-07T08:05:40.236Z,1.30
2023-05-07T08:08:08.372Z,1.75
2023-05-07T08:10:39.400Z,1.20
2023-05-07T08:13:09.393Z,3.40
2023-05-07T08:15:37.868Z,1.30
2023-05-07T08:18:06.229Z,1.58
2023-05-07T08:20:34.817Z,1.70
2023-05-07T08:23:02.979Z,3.47
2023-05-07T08:25:31.182Z,1.67
2023-05-07T08:27:59.475Z,1.40
2023-05-07T08:30:29.295Z,1.60
2023-05-07T08:32:57.460Z,1.45
2023-05-07T08:35:26.835Z,1.65
2023-05-07T08:37:55.214Z,1.88
2023-05-07T08:40:26.641Z,1.73
2023-05-07T08:42:55.259Z,1.20
2023-05-07T08:45:23.347Z,1.60
2023-05-07T08:47:57.091Z,1.63
2023-05-07T08:50:25.309Z,1.50
2023-05-07T08:52:53.735Z,1.95
2023-05-07T08:55:22.819Z,1.77
2023-05-07T08:57:51.149Z,2.33
2023-05-07T09:00:19.757Z,1.73
2023-05-07T09:02:48.350Z,1.77
2023-05-07T09:05:18.202Z,2.58
2023-05-07T09:07:47.000Z,1.48
2023-05-07T09:10:15.542Z,1.63
2023-05-07T09:12:43.775Z,1.75
2023-05-07T09:15:13.303Z,1.27
2023-05-07T09:17:42.404Z,1.90
2023-05-07T09:20:11.371Z,1.90
2023-05-07T09:22:41.424Z,1.30
2023-05-07T09:25:11.067Z,1.92
2023-05-07T09:27:39.810Z,1.80
2023-05-07T09:30:09.560Z,1.42
2023-05-07T09:32:40.247Z,1.80
2023-05-07T09:35:16.628Z,1.80
2023-05-07T09:37:46.337Z,1.60
2023-05-07T09:40:23.491Z,1.35
2023-05-07T09:42:52.001Z,1.38
2023-05-07T09:45:24.844Z,2.38
2023-05-07T09:47:57.078Z,1.63
2023-05-07T09:50:29.917Z,1.40
2023-05-07T09:52:59.914Z,1.58
2023-05-07T09:55:28.906Z,2.35
2023-05-07T09:57:57.845Z,1.35
2023-05-07T10:00:27.987Z,1.35
2023-05-07T10:02:59.843Z,1.75
2023-05-07T10:05:29.774Z,2.92
2023-05-07T10:08:00.940Z,2.05
2023-05-07T10:10:31.497Z,3.75
2023-05-07T10:13:00.003Z,1.50
2023-05-07T10:15:28.938Z,1.73
2023-05-07T10:17:58.008Z,1.73
2023-05-07T10:20:27.952Z,1.85
2023-05-07T10:23:00.888Z,1.75
2023-05-07T10:25:32.497Z,1.48
2023-05-07T10:28:05.701Z,1.75
2023-05-07T10:30:42.547Z,2.50
2023-05-07T10:33:14.201Z,1.67
2023-05-07T10:35:45.158Z,1.40
2023-05-07T10:38:15.191Z,1.48
2023-05-07T10:40:43.432Z,1.23
2023-05-07T10:43:11.747Z,2.70
2023-05-07T10:45:40.007Z,1.30
2023-05-07T10:48:25.013Z,1.02
2023-05-07T10:51:21.382Z,1.98
2023-05-07T10:53:51.056Z,2.67
2023-05-07T10:56:32.045Z,2.67
2023-05-07T10:59:35.143Z,2.20
2023-05-07T11:02:05.528Z,1.63
2023-05-07T11:04:36.240Z,1.10
2023-05-07T11:07:30.208Z,1.23
2023-05-07T11:10:07.569Z,1.45
2023-05-07T11:12:57.508Z,1.20
2023-05-07T11:15:37.790Z,2.25
2023-05-07T11:18:06.271Z,1.42
2023-05-07T11:20:52.445Z,1.50
2023-05-07T11:23:53.515Z,1.20
2023-05-07T11:26:24.210Z,0.90
2023-05-07T11:28:53.496Z,1.23
2023-05-07T11:31:27.317Z,1.13
2023-05-07T11:33:56.169Z,1.13
2023-05-07T11:36:28.047Z,1.20
2023-05-07T11:38:57.159Z,1.40
2023-05-07T11:41:36.238Z,1.48
2023-05-07T11:44:04.448Z,1.35
2023-05-07T11:46:32.787Z,1.10
2023-05-07T11:49:02.861Z,1.45
2023-05-07T11:51:31.180Z,1.00
2023-05-07T11:53:59.284Z,1.27
2023-05-07T11:56:28.817Z,1.35
2023-05-07T11:58:56.967Z,2.40
2023-05-07T12:01:25.137Z,1.08
2023-05-07T12:03:53.445Z,1.00
2023-05-07T12:06:21.729Z,1.30
2023-05-07T12:08:50.005Z,4.28
2023-05-07T12:11:19.722Z,1.20
2023-05-07T12:13:49.364Z,1.40
2023-05-07T12:16:18.207Z,1.20
2023-05-07T12:18:47.286Z,1.00
2023-05-07T12:21:16.031Z,1.20
2023-05-07T12:23:44.294Z,1.30
2023-05-07T12:26:12.533Z,1.05
2023-05-07T12:28:41.255Z,2.95
2023-05-07T12:31:11.633Z,1.65
2023-05-07T12:33:39.961Z,0.90
2023-05-07T12:36:09.843Z,1.23
2023-05-07T12:38:39.694Z,0.90
2023-05-07T12:41:09.370Z,1.33
2023-05-07T12:43:37.819Z,1.10
2023-05-07T12:46:07.549Z,0.98
2023-05-07T12:48:39.097Z,1.30
2023-05-07T12:51:08.786Z,1.23
2023-05-07T12:53:43.366Z,2.58
2023-05-07T12:56:11.764Z,1.67
2023-05-07T12:58:39.986Z,1.40
2023-05-07T13:01:11.169Z,1.25
2023-05-07T13:03:41.231Z,1.30
2023-05-07T13:06:13.286Z,1.10
2023-05-07T13:08:44.226Z,1.00
2023-05-07T13:11:13.112Z,1.30
2023-05-07T13:13:43.194Z,1.35
2023-05-07T13:16:12.936Z,1.95
2023-05-07T13:18:45.029Z,1.17
2023-05-07T13:21:14.410Z,0.70
2023-05-07T13:23:42.805Z,0.55
2023-05-07T13:26:24.994Z,0.25
2023-05-07T13:28:54.692Z,0.20
2023-05-07T13:31:23.248Z,0.80
2023-05-07T13:33:53.967Z,0.32
2023-05-07T13:36:22.271Z,0.98
2023-05-07T13:38:50.458Z,0.30
2023-05-07T13:41:18.635Z,0.28
2023-05-07T13:43:46.869Z,0.20
2023-05-07T13:46:15.063Z,0.20
2023-05-07T13:48:43.208Z,0.30
2023-05-07T13:51:12.832Z,0.30
2023-05-07T13:53:41.054Z,0.40
2023-05-07T13:56:09.290Z,0.60
2023-05-07T13:58:42.216Z,0.73
2023-05-07T14:01:13.499Z,1.10
2023-05-07T14:03:41.814Z,1.50
2023-05-07T14:06:10.220Z,0.90
2023-05-07T14:08:39.825Z,1.52
2023-05-07T14:11:08.173Z,1.42
2023-05-07T14:13:36.649Z,2.20
2023-05-07T14:16:07.600Z,2.53
2023-05-07T14:18:39.233Z,2.33
2023-05-07T14:21:08.670Z,6.18
2023-05-07T14:23:37.134Z,3.38
2023-05-07T14:26:06.966Z,4.75
2023-05-07T14:28:35.137Z,4.20
2023-05-07T14:31:03.533Z,4.38
2023-05-07T14:33:31.697Z,5.57
2023-05-07T14:36:04.029Z,3.53
2023-05-07T14:38:34.054Z,4.72
2023-05-07T14:41:02.496Z,3.67
2023-05-07T14:43:32.665Z,3.75
2023-05-07T14:46:01.359Z,5.25
2023-05-07T14:48:29.561Z,4.70
2023-05-07T14:50:58.250Z,3.58
2023-05-07T14:53:26.923Z,6.03
2023-05-07T14:55:55.766Z,3.40
2023-05-07T14:58:23.906Z,3.17
2023-05-07T15:00:53.698Z,4.53
2023-05-07T15:03:23.472Z,3.95
2023-05-07T15:05:52.972Z,4.50
2023-05-07T15:08:21.404Z,4.53
2023-05-07T15:10:53.028Z,2.42
2023-05-07T15:13:21.634Z,3.72
2023-05-07T15:15:50.905Z,3.00
2023-05-07T15:18:22.641Z,3.60
2023-05-07T15:20:51.836Z,3.92
2023-05-07T15:23:20.056Z,3.20
2023-05-07T15:25:50.295Z,4.22
2023-05-07T15:28:20.822Z,3.42
2023-05-07T15:30:49.133Z,4.40
2023-05-07T15:33:17.262Z,3.97
2023-05-07T15:35:46.865Z,3.63
2023-05-07T15:38:15.195Z,5.97
2023-05-07T15:40:43.542Z,4.25
2023-05-07T15:43:12.408Z,5.28
2023-05-07T15:45:42.338Z,3.40
2023-05-07T15:48:11.213Z,3.90
2023-05-07T15:50:40.089Z,4.68
2023-05-07T15:53:26.096Z,4.00
2023-05-07T15:55:54.538Z,4.07
2023-05-07T15:58:22.716Z,4.45
2023-05-07T16:00:51.288Z,3.70
2023-05-07T16:03:20.003Z,4.22
2023-05-07T16:05:48.189Z,4.35
2023-05-07T16:08:16.418Z,6.45
2023-05-07T16:10:46.099Z,4.35
2023-05-07T16:13:14.314Z,4.10
2023-05-07T16:15:42.532Z,4.28
2023-05-07T16:18:10.831Z,3.35
2023-05-07T16:20:39.228Z,4.43
2023-05-07T16:23:07.378Z,7.65
2023-05-07T16:25:35.525Z,5.28
2023-05-07T16:28:05.218Z,4.45
2023-05-07T16:30:33.412Z,5.68
2023-05-07T16:33:01.593Z,4.88
2023-05-07T16:35:29.912Z,4.65
2023-05-07T16:37:58.107Z,5.00
2023-05-07T16:40:26.568Z,4.68
2023-05-07T16:42:55.604Z,4.18
2023-05-07T16:45:25.227Z,5.38
2023-05-07T16:47:53.400Z,5.57
2023-05-07T16:50:21.663Z,4.93
2023-05-07T16:52:50.225Z,6.70
2023-05-07T16:55:18.606Z,7.75
2023-05-07T16:57:46.771Z,7.07
2023-05-07T17:00:16.912Z,5.82
2023-05-07T17:02:47.168Z,5.10
2023-05-07T17:05:15.793Z,5.30
2023-05-07T17:07:44.138Z,5.05
2023-05-07T17:10:12.510Z,5.90
2023-05-07T17:12:41.103Z,4.53
2023-05-07T17:15:11.017Z,4.28
2023-05-07T17:17:39.455Z,6.93
2023-05-07T17:20:10.494Z,5.45
2023-05-07T17:22:38.734Z,4.78
2023-05-07T17:25:07.443Z,6.68
2023-05-07T17:27:35.732Z,6.43
2023-05-07T17:30:03.865Z,5.40
2023-05-07T17:32:34.941Z,4.93
2023-05-07T17:35:03.523Z,7.10
2023-05-07T17:37:33.214Z,5.40
2023-05-07T17:40:02.241Z,5.03
2023-05-07T17:42:32.129Z,5.32
2023-05-07T17:45:00.250Z,5.40
2023-05-07T17:47:28.439Z,5.28
2023-05-07T17:49:56.657Z,4.72
2023-05-07T17:56:36.854Z,7.68
2023-05-07T17:59:05.388Z,5.22
2023-05-07T18:01:34.347Z,5.45
2023-05-07T18:04:03.433Z,5.72
2023-05-07T18:06:32.298Z,4.68
2023-05-07T18:09:00.641Z,6.07
2023-05-07T18:11:32.704Z,4.68
2023-05-07T18:14:03.006Z,8.18
2023-05-07T18:16:31.481Z,6.18
2023-05-07T18:18:59.716Z,6.28
2023-05-07T18:21:28.553Z,5.35
2023-05-07T18:23:57.210Z,5.80
2023-05-07T18:26:26.156Z,6.85
2023-05-07T18:28:54.404Z,5.65
2023-05-07T18:31:24.640Z,5.80
2023-05-07T18:33:56.052Z,6.40
2023-05-07T18:36:27.069Z,6.88
2023-05-07T18:39:01.550Z,6.55
2023-05-07T18:41:29.851Z,8.23
2023-05-07T18:43:58.195Z,5.90
2023-05-07T18:46:29.739Z,7.03
2023-05-07T18:48:58.425Z,7.75
2023-05-07T18:51:28.785Z,5.35
2023-05-07T18:53:58.188Z,5.85
2023-05-07T18:56:26.415Z,6.10
2023-05-07T18:58:54.653Z,6.70
2023-05-07T19:01:23.251Z,5.65
2023-05-07T19:03:53.215Z,6.20
2023-05-07T19:06:22.375Z,5.25
2023-05-07T19:08:50.522Z,5.75
2023-05-07T19:11:18.821Z,5.70
2023-05-07T19:13:47.009Z,6.45
2023-05-07T19:16:15.394Z,7.07
2023-05-07T19:18:43.974Z,8.90
2023-05-07T19:21:14.595Z,6.18
2023-05-07T19:23:43.370Z,8.15
2023-05-07T19:26:13.920Z,6.13
2023-05-07T19:28:45.435Z,5.50
2023-05-07T19:31:20.929Z,7.18
2023-05-07T19:33:49.727Z,5.15
2023-05-07T19:36:20.040Z,5.95
2023-05-07T19:38:50.203Z,5.78
2023-05-07T19:41:18.351Z,5.95
2023-05-07T19:43:46.510Z,4.97
2023-05-07T19:46:16.720Z,7.88
2023-05-07T19:48:45.764Z,4.45
2023-05-07T19:51:14.826Z,5.30
2023-05-07T19:53:45.133Z,6.47
2023-05-07T19:56:13.794Z,9.20
2023-05-07T19:58:41.954Z,6.90
2023-05-07T20:01:10.328Z,5.80
2023-05-07T20:03:38.735Z,7.03
2023-05-07T20:06:07.031Z,8.98
2023-05-07T20:08:35.206Z,5.60
2023-05-07T20:11:05.760Z,8.52
2023-05-07T20:13:34.058Z,6.68
2023-05-07T20:16:04.511Z,4.93
2023-05-07T20:18:32.773Z,6.75
2023-05-07T20:21:05.668Z,6.75
2023-05-07T20:23:34.325Z,7.25
2023-05-07T20:26:02.648Z,10.68
2023-05-07T20:28:32.345Z,9.30
2023-05-07T20:31:00.529Z,6.38
2023-05-07T20:33:28.718Z,5.72
2023-05-07T20:35:59.184Z,6.13
2023-05-07T20:38:28.645Z,5.88
2023-05-07T20:40:56.905Z,6.43
2023-05-07T20:43:25.113Z,7.18
2023-05-07T20:46:02.526Z,7.50
2023-05-07T20:48:32.197Z,7.28
2023-05-07T20:51:01.294Z,7.00
2023-05-07T20:53:30.515Z,7.95
2023-05-07T20:55:59.039Z,9.38
2023-05-07T20:58:29.126Z,8.10
2023-05-07T21:00:58.370Z,6.95
2023-05-07T21:03:28.039Z,10.38
2023-05-07T21:05:57.922Z,8.10
2023-05-07T21:08:30.993Z,7.00
2023-05-07T21:10:59.354Z,9.10
2023-05-07T21:13:27.710Z,8.48
2023-05-07T21:15:56.075Z,9.70
2023-05-07T21:18:26.855Z,8.18
2023-05-07T21:20:57.399Z,7.05
2023-05-07T21:23:25.683Z,8.50
2023-05-07T21:25:53.986Z,7.45
2023-05-07T21:28:22.296Z,8.20
2023-05-07T21:30:50.689Z,7.93
2023-05-07T21:33:18.878Z,7.13
2023-05-07T21:35:47.140Z,6.47
2023-05-07T21:38:18.033Z,6.60
2023-05-07T21:40:46.524Z,8.35
2023-05-07T21:43:14.761Z,8.40
2023-05-07T21:45:43.151Z,8.43
2023-05-07T21:48:11.326Z,6.30
2023-05-07T21:50:39.508Z,6.55
2023-05-07T21:53:07.835Z,6.15
2023-05-07T21:55:37.514Z,6.95
2023-05-07T21:58:06.375Z,6.05
2023-05-07T22:00:34.909Z,8.27
2023-05-07T22:03:03.229Z,6.22
2023-05-07T22:05:32.253Z,8.33
2023-05-07T22:08:00.519Z,7.20
2023-05-07T22:10:28.762Z,10.98
2023-05-07T22:12:58.433Z,6.75
2023-05-07T22:15:26.658Z,9.02
2023-05-07T22:17:54.819Z,7.00
2023-05-07T22:20:23.051Z,9.65
2023-05-07T22:22:52.997Z,13.18
2023-05-07T22:25:21.981Z,8.65
2023-05-07T22:27:50.798Z,7.05
2023-05-07T22:30:20.495Z,8.07
2023-05-07T22:32:48.907Z,7.00
2023-05-07T22:35:17.128Z,7.93
2023-05-07T22:37:45.275Z,8.43
2023-05-07T22:40:13.895Z,8.15
2023-05-07T22:42:42.349Z,9.55
2023-05-07T22:45:11.653Z,6.63
2023-05-07T22:47:41.396Z,8.00
2023-05-07T22:50:10.552Z,7.17
2023-05-07T22:52:39.000Z,5.30
2023-05-07T22:55:08.329Z,5.45
2023-05-07T22:57:36.490Z,4.20
2023-05-07T23:00:05.195Z,3.83
2023-05-07T23:02:33.605Z,4.95
2023-05-07T23:05:03.376Z,7.00
2023-05-07T23:07:31.620Z,4.63
2023-05-07T23:09:59.790Z,4.33
2023-05-07T23:12:28.039Z,4.27
2023-05-07T23:14:56.238Z,4.93
2023-05-07T23:17:24.565Z,5.43
2023-05-07T23:19:52.829Z,3.95
2023-05-07T23:22:22.402Z,3.60
2023-05-07T23:24:50.574Z,4.80
2023-05-07T23:27:18.795Z,5.87
2023-05-07T23:29:47.569Z,5.50
2023-05-07T23:32:15.749Z,4.93
2023-05-07T23:34:43.908Z,5.13
2023-05-07T23:37:12.086Z,4.40
2023-05-07T23:39:41.618Z,5.00
2023-05-07T23:42:10.276Z,6.07
2023-05-07T23:44:38.565Z,5.03
2023-05-07T23:47:06.805Z,4.47
2023-05-07T23:49:34.956Z,6.80
2023-05-07T23:52:03.172Z,4.33
2023-05-07T23:54:31.401Z,4.40
2023-05-07T23:57:01.079Z,4.32
2023-05-07T23:59:29.632Z,4.60
